createdAt,value
2023-05-07T00:01:40.316Z,92.65
2023-05-07T00:04:08.844Z,92.67
2023-05-07T00:06:35.768Z,92.97
2023-05-07T00:09:02.651Z,93.45
2023-05-07T00:11:29.650Z,93.16
2023-05-07T00:13:56.446Z,93.31
2023-05-07T00:16:23.429Z,93.41
2023-05-07T00:18:50.287Z,93.47
2023-05-07T00:21:17.421Z,93.55
2023-05-07T00:23:44.155Z,93.31
2023-05-07T00:26:11.000Z,93.46
2023-05-07T00:28:37.731Z,94.31
2023-05-07T00:31:04.468Z,94.38
2023-05-07T00:33:31.249Z,94.05
2023-05-07T00:35:58.029Z,94.40
2023-05-07T00:38:24.974Z,94.27
2023-05-07T00:40:52.770Z,94.08
2023-05-07T00:43:19.667Z,94.97
2023-05-07T00:45:46.789Z,95.29
2023-05-07T00:48:15.304Z,95.66
2023-05-07T00:50:42.290Z,95.91
2023-05-07T00:53:09.162Z,96.52
2023-05-07T00:55:37.577Z,96.11
2023-05-07T00:58:04.610Z,97.40
2023-05-07T01:00:31.790Z,97.40
2023-05-07T01:02:59.175Z,97.75
2023-05-07T01:05:29.056Z,97.63
2023-05-07T01:07:57.134Z,97.85
2023-05-07T01:10:24.695Z,97.80
2023-05-07T01:12:51.768Z,98.57
2023-05-07T01:15:19.107Z,99.31
2023-05-07T01:17:46.572Z,98.65
2023-05-07T01:20:14.092Z,98.81
2023-05-07T01:22:41.470Z,98.50
2023-05-07T01:25:09.394Z,98.63
2023-05-07T01:27:38.370Z,99.21
2023-05-07T01:30:06.396Z,100.00
2023-05-07T01:32:42.067Z,100.00
2023-05-07T01:35:12.312Z,100.00
2023-05-07T01:37:41.249Z,100.00
2023-05-07T01:40:09.619Z,100.00
2023-05-07T01:42:37.504Z,100.00
2023-05-07T01:45:04.578Z,100.00
2023-05-07T01:47:31.817Z,100.00
2023-05-07T01:49:59.337Z,100.00
2023-05-07T01:52:26.400Z,100.00
2023-05-07T01:54:53.180Z,100.00
2023-05-07T01:57:20.108Z,100.00
2023-05-07T01:59:46.832Z,100.00
2023-05-07T02:02:13.652Z,100.00
2023-05-07T02:04:40.529Z,100.00
2023-05-07T02:07:07.341Z,100.00
2023-05-07T02:09:34.148Z,100.00
2023-05-07T02:12:01.067Z,100.00
2023-05-07T02:14:27.807Z,100.00
2023-05-07T02:16:54.633Z,100.00
2023-05-07T02:19:22.389Z,100.00
2023-05-07T02:21:49.424Z,100.00
2023-05-07T02:24:16.294Z,100.00
2023-05-07T02:26:43.092Z,100.00
2023-05-07T02:29:09.853Z,100.00
2023-05-07T02:31:36.681Z,100.00
2023-05-07T02:34:03.512Z,100.00
2023-05-07T02:36:30.411Z,100.00
2023-05-07T02:39:00.084Z,100.00
2023-05-07T02:41:26.893Z,100.00
2023-05-07T02:43:53.630Z,99.13
2023-05-07T02:46:20.482Z,98.67
2023-05-07T02:48:47.317Z,98.34
2023-05-07T02:51:14.065Z,97.38
2023-05-07T02:53:40.900Z,97.67
2023-05-07T02:56:08.063Z,97.42
2023-05-07T02:58:34.826Z,97.47
2023-05-07T03:01:01.831Z,97.62
2023-05-07T03:03:28.633Z,97.88
2023-05-07T03:05:55.448Z,97.43
2023-05-07T03:08:22.191Z,96.65
2023-05-07T03:10:49.161Z,96.99
2023-05-07T03:13:16.165Z,97.02
2023-05-07T03:15:42.962Z,97.46
2023-05-07T03:18:09.843Z,97.09
2023-05-07T03:20:37.732Z,97.07
2023-05-07T03:23:04.707Z,97.40
2023-05-07T03:25:31.752Z,97.24
2023-05-07T03:27:58.527Z,96.87
2023-05-07T03:30:25.417Z,97.49
2023-05-07T03:32:52.260Z,97.26
2023-05-07T03:35:19.287Z,97.92
2023-05-07T03:37:46.086Z,97.68
2023-05-07T03:40:13.853Z,98.32
2023-05-07T03:42:40.862Z,97.79
2023-05-07T03:45:08.440Z,97.92
2023-05-07T03:47:35.268Z,96.85
2023-05-07T03:50:02.310Z,96.63
2023-05-07T03:52:29.197Z,96.16
2023-05-07T03:54:56.414Z,96.12
2023-05-07T03:57:23.345Z,95.61
2023-05-07T03:59:50.139Z,94.02
2023-05-07T04:02:17.051Z,93.47
2023-05-07T04:04:43.890Z,92.92
2023-05-07T04:07:11.241Z,92.15
2023-05-07T04:09:38.057Z,92.04
2023-05-07T04:12:05.133Z,91.57
2023-05-07T04:14:33.378Z,91.47
2023-05-07T04:17:00.828Z,91.13
2023-05-07T04:19:27.609Z,90.93
2023-05-07T04:21:54.449Z,90.48
2023-05-07T04:24:21.418Z,90.52
2023-05-07T04:26:48.243Z,90.08
2023-05-07T04:29:15.014Z,90.38
2023-05-07T04:31:41.845Z,90.05
2023-05-07T04:34:08.683Z,90.50
2023-05-07T04:36:35.473Z,90.07
2023-05-07T04:39:03.934Z,91.17
2023-05-07T04:41:30.756Z,91.06
2023-05-07T04:44:00.181Z,91.15
2023-05-07T04:46:27.123Z,90.82
2023-05-07T04:48:53.987Z,90.28
2023-05-07T04:51:20.756Z,90.29
2023-05-07T04:53:47.530Z,89.88
2023-05-07T04:56:14.527Z,89.46
2023-05-07T04:58:41.692Z,89.23
2023-05-07T05:01:08.565Z,89.45
2023-05-07T05:03:35.505Z,90.01
2023-05-07T05:06:02.330Z,89.26
2023-05-07T05:08:29.101Z,88.45
2023-05-07T05:10:55.989Z,89.12
2023-05-07T05:13:22.953Z,88.95
2023-05-07T05:15:49.907Z,88.65
2023-05-07T05:18:16.697Z,89.44
2023-05-07T05:20:43.472Z,88.38
2023-05-07T05:23:10.343Z,87.25
2023-05-07T05:25:37.145Z,87.76
2023-05-07T05:28:04.059Z,87.67
2023-05-07T05:30:30.800Z,86.98
2023-05-07T05:32:57.634Z,86.87
2023-05-07T05:35:24.542Z,86.56
2023-05-07T05:37:51.456Z,86.53
2023-05-07T05:40:18.301Z,86.30
2023-05-07T05:42:45.093Z,84.80
2023-05-07T05:45:11.945Z,85.59
2023-05-07T05:47:39.111Z,85.76
2023-05-07T05:50:07.664Z,85.74
2023-05-07T05:52:34.417Z,85.63
2023-05-07T05:55:01.202Z,85.75
2023-05-07T05:57:28.724Z,85.52
2023-05-07T05:59:56.161Z,85.09
2023-05-07T06:02:23.089Z,85.15
2023-05-07T06:04:50.318Z,84.87
2023-05-07T06:07:17.040Z,84.23
2023-05-07T06:09:43.797Z,84.75
2023-05-07T06:12:10.507Z,84.66
2023-05-07T06:14:37.326Z,82.75
2023-05-07T06:17:04.306Z,82.00
2023-05-07T06:19:31.157Z,82.09
2023-05-07T06:21:57.909Z,81.95
2023-05-07T06:24:25.930Z,80.32
2023-05-07T06:26:52.706Z,79.64
2023-05-07T06:29:19.611Z,80.70
2023-05-07T06:31:46.596Z,80.84
2023-05-07T06:34:15.638Z,80.36
2023-05-07T06:36:42.577Z,80.69
2023-05-07T06:39:09.495Z,79.96
2023-05-07T06:41:36.817Z,79.02
2023-05-07T06:44:04.251Z,78.44
2023-05-07T06:46:31.242Z,76.33
2023-05-07T06:48:58.162Z,75.69
2023-05-07T06:51:25.091Z,76.26
2023-05-07T06:53:51.891Z,77.65
2023-05-07T06:56:18.606Z,77.26
2023-05-07T06:58:45.357Z,77.08
2023-05-07T07:01:12.239Z,77.77
2023-05-07T07:03:38.999Z,77.36
2023-05-07T07:06:05.916Z,75.71
2023-05-07T07:08:32.734Z,75.06
2023-05-07T07:10:59.514Z,76.37
2023-05-07T07:13:26.528Z,76.41
2023-05-07T07:15:54.560Z,76.23
2023-05-07T07:18:21.727Z,73.32
2023-05-07T07:20:48.629Z,71.79
2023-05-07T07:23:15.767Z,72.69
2023-05-07T07:25:42.674Z,72.26
2023-05-07T07:28:09.527Z,69.40
2023-05-07T07:30:36.391Z,69.13
2023-05-07T07:33:04.486Z,69.91
2023-05-07T07:35:31.582Z,68.52
2023-05-07T07:37:58.466Z,69.23
2023-05-07T07:40:26.105Z,70.17
2023-05-07T07:42:53.868Z,67.65
2023-05-07T07:45:20.920Z,69.39
2023-05-07T07:47:47.939Z,68.60
2023-05-07T07:50:21.990Z,69.06
2023-05-07T07:52:52.182Z,70.34
2023-05-07T07:55:24.118Z,69.33
2023-05-07T07:57:51.327Z,69.87
2023-05-07T08:00:18.475Z,69.39
2023-05-07T08:02:46.205Z,69.03
2023-05-07T08:05:13.145Z,67.57
2023-05-07T08:07:39.907Z,70.09
2023-05-07T08:10:07.290Z,67.60
2023-05-07T08:12:34.061Z,66.90
2023-05-07T08:15:00.825Z,66.86
2023-05-07T08:17:27.735Z,66.79
2023-05-07T08:19:54.464Z,66.30
2023-05-07T08:22:21.193Z,67.04
2023-05-07T08:24:48.001Z,65.81
2023-05-07T08:27:14.796Z,67.87
2023-05-07T08:29:41.546Z,67.55
2023-05-07T08:32:08.333Z,65.95
2023-05-07T08:34:35.062Z,67.10
2023-05-07T08:37:01.863Z,66.65
2023-05-07T08:39:31.335Z,64.73
2023-05-07T08:42:01.227Z,63.62
2023-05-07T08:44:29.681Z,63.52
2023-05-07T08:46:58.001Z,63.88
2023-05-07T08:49:24.890Z,64.59
2023-05-07T08:51:52.717Z,63.80
2023-05-07T08:54:21.148Z,63.75
2023-05-07T08:56:48.028Z,63.94
2023-05-07T08:59:15.101Z,62.28
2023-05-07T09:01:42.170Z,63.75
2023-05-07T09:04:10.670Z,62.11
2023-05-07T09:06:39.249Z,61.67
2023-05-07T09:09:06.710Z,61.93
2023-05-07T09:11:33.589Z,60.90
2023-05-07T09:14:03.982Z,61.48
2023-05-07T09:16:33.649Z,62.10
2023-05-07T09:19:01.852Z,59.83
2023-05-07T09:21:28.713Z,58.20
2023-05-07T09:23:56.675Z,58.92
2023-05-07T09:26:24.769Z,58.32
2023-05-07T09:28:52.097Z,57.14
2023-05-07T09:31:21.057Z,58.88
2023-05-07T09:33:48.332Z,58.12
2023-05-07T09:36:15.175Z,58.52
2023-05-07T09:38:42.725Z,56.89
2023-05-07T09:41:11.854Z,56.37
2023-05-07T09:43:40.794Z,57.76
2023-05-07T09:46:12.876Z,55.90
2023-05-07T09:48:41.989Z,54.31
2023-05-07T09:51:30.967Z,52.95
2023-05-07T09:53:59.064Z,55.26
2023-05-07T09:56:27.007Z,55.00
2023-05-07T09:58:55.832Z,57.20
2023-05-07T10:01:23.831Z,57.25
2023-05-07T10:03:51.980Z,54.01
2023-05-07T10:06:18.989Z,51.20
2023-05-07T10:08:46.587Z,51.07
2023-05-07T10:11:13.660Z,51.49
2023-05-07T10:13:41.423Z,51.12
2023-05-07T10:16:08.869Z,49.79
2023-05-07T10:18:36.117Z,50.20
2023-05-07T10:21:12.390Z,50.43
2023-05-07T10:23:39.920Z,50.27
2023-05-07T10:26:09.280Z,48.51
2023-05-07T10:28:40.996Z,49.35
2023-05-07T10:31:38.445Z,49.19
2023-05-07T10:34:11.405Z,48.13
2023-05-07T10:36:38.737Z,50.14
2023-05-07T10:39:07.427Z,47.63
2023-05-07T10:41:34.342Z,47.10
2023-05-07T10:44:03.461Z,45.91
2023-05-07T10:46:30.624Z,49.67
2023-05-07T10:49:07.537Z,50.19
2023-05-07T10:51:34.560Z,51.79
2023-05-07T10:54:16.875Z,50.44
2023-05-07T10:56:44.520Z,49.31
2023-05-07T10:59:31.815Z,48.44
2023-05-07T11:02:00.495Z,47.00
2023-05-07T11:04:28.843Z,48.07
2023-05-07T11:07:08.005Z,46.03
2023-05-07T11:09:53.198Z,45.01
2023-05-07T11:12:42.235Z,47.30
2023-05-07T11:15:13.290Z,47.05
2023-05-07T11:17:57.792Z,48.24
2023-05-07T11:20:48.418Z,47.23
2023-05-07T11:23:36.810Z,47.79
2023-05-07T11:26:05.284Z,45.92
2023-05-07T11:28:37.405Z,46.86
2023-05-07T11:31:04.874Z,46.68
2023-05-07T11:33:32.090Z,44.61
2023-05-07T11:35:59.566Z,44.96
2023-05-07T11:38:26.966Z,45.55
2023-05-07T11:40:55.350Z,43.40
2023-05-07T11:43:22.192Z,42.32
2023-05-07T11:45:50.116Z,43.63
2023-05-07T11:48:17.918Z,44.36
2023-05-07T11:50:59.757Z,43.73
2023-05-07T11:53:28.068Z,43.07
2023-05-07T11:55:56.835Z,42.50
2023-05-07T11:58:25.370Z,43.57
2023-05-07T12:00:53.482Z,40.86
2023-05-07T12:03:21.239Z,43.63
2023-05-07T12:05:49.140Z,41.91
2023-05-07T12:08:20.388Z,41.86
2023-05-07T12:10:50.264Z,41.94
2023-05-07T12:13:22.327Z,40.68
2023-05-07T12:15:56.427Z,40.13
2023-05-07T12:18:24.395Z,37.84
2023-05-07T12:20:51.814Z,39.68
2023-05-07T12:23:19.061Z,40.36
2023-05-07T12:25:49.137Z,38.86
2023-05-07T12:28:17.691Z,37.93
2023-05-07T12:30:49.664Z,40.40
2023-05-07T12:33:20.462Z,39.06
2023-05-07T12:35:49.254Z,38.98
2023-05-07T12:38:19.062Z,38.78
2023-05-07T12:40:48.680Z,38.06
2023-05-07T12:43:25.383Z,37.32
2023-05-07T12:45:55.372Z,38.13
2023-05-07T12:48:22.917Z,37.05
2023-05-07T12:50:56.727Z,38.08
2023-05-07T12:53:26.080Z,36.70
2023-05-07T12:55:55.152Z,36.63
2023-05-07T12:58:26.556Z,36.66
2023-05-07T13:00:54.000Z,38.01
2023-05-07T13:03:29.242Z,38.23
2023-05-07T13:05:59.240Z,37.42
2023-05-07T13:08:28.164Z,36.39
2023-05-07T13:10:55.321Z,35.22
2023-05-07T13:13:22.816Z,34.98
2023-05-07T13:15:49.758Z,35.69
2023-05-07T13:18:16.766Z,37.65
2023-05-07T13:20:43.734Z,38.81
2023-05-07T13:23:10.516Z,38.05
2023-05-07T13:25:39.069Z,37.97
2023-05-07T13:28:10.752Z,37.76
2023-05-07T13:30:38.341Z,35.98
2023-05-07T13:33:05.355Z,37.11
2023-05-07T13:35:32.278Z,38.23
2023-05-07T13:37:59.107Z,38.06
2023-05-07T13:40:26.230Z,36.18
2023-05-07T13:42:53.143Z,35.63
2023-05-07T13:45:20.250Z,35.65
2023-05-07T13:47:48.013Z,35.17
2023-05-07T13:50:14.903Z,34.79
2023-05-07T13:52:46.976Z,35.09
2023-05-07T13:55:14.188Z,33.65
2023-05-07T13:57:41.284Z,33.30
2023-05-07T14:00:08.812Z,35.47
2023-05-07T14:02:35.751Z,34.82
2023-05-07T14:05:02.678Z,33.70
2023-05-07T14:07:29.610Z,32.46
2023-05-07T14:09:58.641Z,32.97
2023-05-07T14:12:26.019Z,31.87
2023-05-07T14:14:53.278Z,32.83
2023-05-07T14:17:21.362Z,32.94
2023-05-07T14:19:48.295Z,33.58
2023-05-07T14:22:16.760Z,33.20
2023-05-07T14:24:45.241Z,34.09
2023-05-07T14:27:13.568Z,33.67
2023-05-07T14:29:41.224Z,33.81
2023-05-07T14:32:08.103Z,33.65
2023-05-07T14:34:34.988Z,34.92
2023-05-07T14:37:01.886Z,34.81
2023-05-07T14:39:28.722Z,34.14
2023-05-07T14:41:57.391Z,34.88
2023-05-07T14:44:24.401Z,35.17
2023-05-07T14:46:51.992Z,36.71
2023-05-07T14:49:18.832Z,36.83
2023-05-07T14:51:46.627Z,37.19
2023-05-07T14:54:14.343Z,38.67
2023-05-07T14:56:41.839Z,40.12
2023-05-07T14:59:09.601Z,41.09
2023-05-07T15:01:37.658Z,41.59
2023-05-07T15:04:05.954Z,41.87
2023-05-07T15:06:33.623Z,42.86
2023-05-07T15:09:00.576Z,42.18
2023-05-07T15:11:28.220Z,42.84
2023-05-07T15:13:56.338Z,42.69
2023-05-07T15:16:23.308Z,42.69
2023-05-07T15:18:50.371Z,42.73
2023-05-07T15:21:17.294Z,42.91
2023-05-07T15:23:45.659Z,43.50
2023-05-07T15:26:12.537Z,43.55
2023-05-07T15:28:40.729Z,44.59
2023-05-07T15:31:08.266Z,44.52
2023-05-07T15:33:35.265Z,45.06
2023-05-07T15:36:02.942Z,44.87
2023-05-07T15:38:30.358Z,44.81
2023-05-07T15:40:57.251Z,44.67
2023-05-07T15:43:24.214Z,45.58
2023-05-07T15:45:51.320Z,45.10
2023-05-07T15:48:18.196Z,45.70
2023-05-07T15:50:45.061Z,45.85
2023-05-07T15:53:13.964Z,45.66
2023-05-07T15:55:43.233Z,45.87
2023-05-07T15:58:10.238Z,45.78
2023-05-07T16:00:40.964Z,46.86
2023-05-07T16:03:09.363Z,46.77
2023-05-07T16:05:36.352Z,47.51
2023-05-07T16:08:04.423Z,47.58
2023-05-07T16:10:31.652Z,48.00
2023-05-07T16:12:58.903Z,47.55
2023-05-07T16:15:25.900Z,47.41
2023-05-07T16:17:58.302Z,48.02
2023-05-07T16:20:32.405Z,47.73
2023-05-07T16:22:59.356Z,47.77
2023-05-07T16:25:26.957Z,48.19
2023-05-07T16:27:55.006Z,48.03
2023-05-07T16:30:21.856Z,48.82
2023-05-07T16:32:48.681Z,48.74
2023-05-07T16:35:15.601Z,48.42
2023-05-07T16:37:46.065Z,48.55
2023-05-07T16:40:13.544Z,48.77
2023-05-07T16:42:40.344Z,48.94
2023-05-07T16:45:07.577Z,49.13
2023-05-07T16:47:34.639Z,49.48
2023-05-07T16:50:01.558Z,49.98
2023-05-07T16:52:30.386Z,49.59
2023-05-07T16:55:01.114Z,49.14
2023-05-07T16:57:31.025Z,49.50
2023-05-07T16:59:59.257Z,49.39
2023-05-07T17:02:26.178Z,49.55
2023-05-07T17:04:53.216Z,49.79
2023-05-07T17:07:19.980Z,50.56
2023-05-07T17:09:46.774Z,50.18
2023-05-07T17:12:13.802Z,50.33
2023-05-07T17:14:40.620Z,50.26
2023-05-07T17:17:07.345Z,50.28
2023-05-07T17:19:39.730Z,50.09
2023-05-07T17:22:06.889Z,50.45
2023-05-07T17:24:33.628Z,49.99
2023-05-07T17:27:00.779Z,50.80
2023-05-07T17:29:27.798Z,50.54
2023-05-07T17:31:54.583Z,51.05
2023-05-07T17:34:21.409Z,50.57
2023-05-07T17:36:48.202Z,51.19
2023-05-07T17:39:14.989Z,51.96
2023-05-07T17:41:41.736Z,52.14
2023-05-07T17:44:08.501Z,52.48
2023-05-07T17:46:35.328Z,53.57
2023-05-07T17:49:02.247Z,53.65
2023-05-07T17:51:36.089Z,53.70
2023-05-07T17:54:09.372Z,52.94
2023-05-07T17:56:38.069Z,53.68
2023-05-07T17:59:05.296Z,53.86
2023-05-07T18:01:34.300Z,53.70
2023-05-07T18:04:02.895Z,54.29
2023-05-07T18:06:29.893Z,54.17
2023-05-07T18:08:57.089Z,54.55
2023-05-07T18:11:24.635Z,55.56
2023-05-07T18:13:51.549Z,61.12
2023-05-07T18:16:19.529Z,64.56
2023-05-07T18:18:47.106Z,67.31
2023-05-07T18:21:19.133Z,68.40
2023-05-07T18:23:46.882Z,68.93
2023-05-07T18:26:13.862Z,68.12
2023-05-07T18:28:41.400Z,68.63
2023-05-07T18:31:08.358Z,66.29
2023-05-07T18:33:35.107Z,65.91
2023-05-07T18:36:02.016Z,65.31
2023-05-07T18:38:28.916Z,65.69
2023-05-07T18:41:05.817Z,65.85
2023-05-07T18:43:34.189Z,67.56
2023-05-07T18:46:01.353Z,67.66
2023-05-07T18:48:28.387Z,64.32
2023-05-07T18:50:55.256Z,62.71
2023-05-07T18:53:22.168Z,61.20
2023-05-07T18:55:52.826Z,60.03
2023-05-07T18:58:20.474Z,60.17
2023-05-07T19:00:48.709Z,58.59
2023-05-07T19:03:16.324Z,57.83
2023-05-07T19:05:43.875Z,57.87
2023-05-07T19:08:10.972Z,57.95
2023-05-07T19:10:38.245Z,57.41
2023-05-07T19:13:05.508Z,57.51
2023-05-07T19:15:32.403Z,57.99
2023-05-07T19:17:59.256Z,57.87
2023-05-07T19:20:26.348Z,58.04
2023-05-07T19:22:53.162Z,57.84
2023-05-07T19:25:20.277Z,57.93
2023-05-07T19:27:48.254Z,57.90
2023-05-07T19:30:15.648Z,58.47
2023-05-07T19:32:42.451Z,58.83
2023-05-07T19:35:09.756Z,59.12
2023-05-07T19:37:36.508Z,59.64
2023-05-07T19:40:05.459Z,59.55
2023-05-07T19:42:32.976Z,59.58
2023-05-07T19:44:59.820Z,60.09
2023-05-07T19:47:26.990Z,60.23
2023-05-07T19:49:53.973Z,60.29
2023-05-07T19:52:20.812Z,60.73
2023-05-07T19:54:47.712Z,60.88
2023-05-07T19:57:15.840Z,61.08
2023-05-07T19:59:42.638Z,61.39
2023-05-07T20:02:09.511Z,61.09
2023-05-07T20:04:38.353Z,61.40
2023-05-07T20:07:06.032Z,61.74
2023-05-07T20:09:32.816Z,61.70
2023-05-07T20:11:59.666Z,62.27
2023-05-07T20:14:29.538Z,62.43
2023-05-07T20:16:56.355Z,62.60
2023-05-07T20:19:23.181Z,62.58
2023-05-07T20:21:49.991Z,62.44
2023-05-07T20:24:19.117Z,62.76
2023-05-07T20:26:46.597Z,63.39
2023-05-07T20:29:13.435Z,63.42
2023-05-07T20:31:40.809Z,64.35
2023-05-07T20:34:07.814Z,64.03
2023-05-07T20:36:34.854Z,64.15
2023-05-07T20:39:01.604Z,63.72
2023-05-07T20:41:28.512Z,64.27
2023-05-07T20:43:55.274Z,64.40
2023-05-07T20:46:23.140Z,64.53
2023-05-07T20:48:50.296Z,64.53
2023-05-07T20:51:17.373Z,64.91
2023-05-07T20:53:46.121Z,64.88
2023-05-07T20:56:14.469Z,65.45
2023-05-07T20:58:41.223Z,65.59
2023-05-07T21:01:08.138Z,65.64
2023-05-07T21:03:35.080Z,65.82
2023-05-07T21:06:02.072Z,65.24
2023-05-07T21:08:28.851Z,65.63
2023-05-07T21:10:56.477Z,65.19
2023-05-07T21:13:23.818Z,65.54
2023-05-07T21:15:50.911Z,64.88
2023-05-07T21:18:19.159Z,65.20
2023-05-07T21:20:45.965Z,66.08
2023-05-07T21:23:12.778Z,66.32
2023-05-07T21:25:41.692Z,66.14
2023-05-07T21:28:09.615Z,66.47
2023-05-07T21:30:37.216Z,66.92
2023-05-07T21:33:06.281Z,66.89
2023-05-07T21:35:36.177Z,66.78
2023-05-07T21:38:03.461Z,66.91
2023-05-07T21:40:30.710Z,67.19
2023-05-07T21:43:00.400Z,67.31
2023-05-07T21:45:27.256Z,67.79
2023-05-07T21:47:54.117Z,68.26
2023-05-07T21:50:21.494Z,67.78
2023-05-07T21:52:49.561Z,68.24
2023-05-07T21:55:18.121Z,68.81
2023-05-07T21:57:53.795Z,69.23
2023-05-07T22:00:24.706Z,69.19
2023-05-07T22:02:51.589Z,69.51
2023-05-07T22:05:18.480Z,69.42
2023-05-07T22:07:45.238Z,69.65
2023-05-07T22:10:12.133Z,69.79
2023-05-07T22:12:39.108Z,70.06
2023-05-07T22:15:07.046Z,69.75
2023-05-07T22:17:33.822Z,70.26
2023-05-07T22:20:00.635Z,69.79
2023-05-07T22:22:27.388Z,70.37
2023-05-07T22:24:54.161Z,70.26
2023-05-07T22:27:21.098Z,70.42
2023-05-07T22:29:48.200Z,70.55
2023-05-07T22:32:15.159Z,70.20
2023-05-07T22:34:42.064Z,70.78
2023-05-07T22:37:08.989Z,70.92
2023-05-07T22:39:35.894Z,71.45
2023-05-07T22:42:02.766Z,71.48
2023-05-07T22:44:29.761Z,71.90
2023-05-07T22:46:56.608Z,72.58
2023-05-07T22:49:23.534Z,72.76
2023-05-07T22:51:50.341Z,73.07
2023-05-07T22:54:17.093Z,72.75
2023-05-07T22:56:44.220Z,72.75
2023-05-07T22:59:11.087Z,72.87
2023-05-07T23:01:37.924Z,73.41
2023-05-07T23:04:04.988Z,73.47
2023-05-07T23:06:31.769Z,73.29
2023-05-07T23:08:59.165Z,74.20
2023-05-07T23:11:26.611Z,74.32
2023-05-07T23:13:53.392Z,74.46
2023-05-07T23:16:20.242Z,74.81
2023-05-07T23:18:47.147Z,74.77
2023-05-07T23:21:13.966Z,75.04
2023-05-07T23:23:40.691Z,74.79
2023-05-07T23:26:07.461Z,74.93
2023-05-07T23:28:34.458Z,75.17
2023-05-07T23:31:01.229Z,75.23
2023-05-07T23:33:28.023Z,76.03
2023-05-07T23:36:02.324Z,75.88
2023-05-07T23:38:29.260Z,76.24
2023-05-07T23:40:56.466Z,75.89
2023-05-07T23:43:23.661Z,76.37
2023-05-07T23:45:51.055Z,77.02
2023-05-07T23:48:17.850Z,76.99
2023-05-07T23:50:44.826Z,76.87
2023-05-07T23:53:11.623Z,77.15
2023-05-07T23:55:38.527Z,77.35
2023-05-07T23:58:05.310Z,77.57
